createdAt,value
2019-01-21T00:01:46.304Z,76.50
2019-01-21T00:04:33.723Z,75.36
2019-01-21T00:07:14.166Z,75.54
2019-01-21T00:10:01.701Z,76.80
2019-01-21T00:12:42.611Z,75.36
2019-01-21T00:15:30.062Z,75.86
2019-01-21T00:18:10.418Z,76.66
2019-01-21T00:20:57.940Z,77.11
2019-01-21T00:23:38.906Z,75.94
2019-01-21T00:26:26.306Z,78.00
2019-01-21T00:29:06.933Z,76.76
2019-01-21T00:31:54.268Z,75.39
2019-01-21T00:34:34.349Z,75.16
2019-01-21T00:37:21.766Z,77.00
2019-01-21T00:40:01.934Z,76.17
2019-01-21T00:42:50.375Z,74.99
2019-01-21T00:45:30.673Z,75.43
2019-01-21T00:48:11.282Z,75.74
2019-01-21T00:50:58.726Z,75.80
2019-01-21T00:53:39.042Z,75.66
2019-01-21T00:56:26.652Z,75.79
2019-01-21T00:59:07.651Z,76.04
2019-01-21T01:01:55.244Z,75.72
2019-01-21T01:04:35.610Z,76.19
2019-01-21T01:07:22.973Z,76.11
2019-01-21T01:10:04.151Z,77.21
2019-01-21T01:12:51.724Z,77.02
2019-01-21T01:15:32.074Z,76.47
2019-01-21T01:18:13.175Z,76.24
2019-01-21T01:21:00.484Z,76.10
2019-01-21T01:23:40.556Z,76.49
2019-01-21T01:26:20.644Z,76.37
2019-01-21T01:29:01.172Z,76.62
2019-01-21T01:31:48.525Z,77.45
2019-01-21T01:34:29.323Z,77.42
2019-01-21T01:37:16.645Z,77.10
2019-01-21T01:39:57.095Z,77.76
2019-01-21T01:45:56.883Z,78.59
2019-01-21T01:48:37.197Z,78.62
2019-01-21T01:51:17.196Z,79.02
2019-01-21T01:53:57.242Z,79.53
2019-01-21T01:56:37.914Z,79.75
2019-01-21T01:59:18.312Z,79.89
2019-01-21T02:01:59.251Z,80.53
2019-01-21T02:04:47.010Z,80.43
2019-01-21T02:07:27.248Z,81.17
2019-01-21T02:10:07.459Z,81.31
2019-01-21T02:12:48.373Z,81.21
2019-01-21T02:15:35.765Z,81.53
2019-01-21T02:18:16.037Z,81.87
2019-01-21T02:20:57.715Z,82.77
2019-01-21T02:23:38.071Z,82.41
2019-01-21T02:30:46.497Z,82.45
2019-01-21T02:33:52.524Z,83.05
2019-01-21T02:36:53.126Z,83.25
2019-01-21T02:43:43.730Z,83.72
2019-01-21T02:50:28.934Z,83.78
2019-01-21T02:53:51.340Z,83.61
2019-01-21T02:56:50.945Z,83.92
2019-01-21T02:59:51.403Z,83.30
2019-01-21T03:02:51.932Z,83.52
2019-01-21T03:06:18.233Z,83.72
2019-01-21T03:09:18.418Z,83.58
2019-01-21T03:12:44.762Z,84.19
2019-01-21T03:15:44.781Z,84.19
2019-01-21T03:19:11.208Z,84.52
2019-01-21T03:22:11.400Z,84.12
2019-01-21T03:25:37.774Z,84.24
2019-01-21T03:28:27.151Z,84.98
2019-01-21T03:32:01.491Z,84.67
2019-01-21T03:35:01.378Z,84.47
2019-01-21T03:37:52.198Z,84.99
2019-01-21T03:41:22.248Z,84.64
2019-01-21T03:44:48.656Z,85.27
2019-01-21T03:47:29.160Z,84.69
2019-01-21T03:50:35.490Z,85.39
2019-01-21T03:54:16.793Z,84.92
2019-01-21T03:57:03.108Z,84.89
2019-01-21T04:00:03.380Z,84.66
2019-01-21T04:10:23.376Z,85.04
2019-01-21T04:13:26.993Z,85.65
2019-01-21T04:20:33.425Z,86.53
2019-01-21T04:23:42.079Z,86.46
2019-01-21T04:27:08.516Z,86.65
2019-01-21T04:30:11.519Z,86.09
2019-01-21T04:33:37.864Z,86.24
2019-01-21T04:36:36.683Z,86.25
2019-01-21T04:39:37.059Z,86.92
2019-01-21T04:43:03.415Z,85.79
2019-01-21T04:46:03.625Z,85.69
2019-01-21T04:49:24.581Z,86.29
2019-01-21T04:56:41.123Z,85.48
2019-01-21T04:59:40.979Z,85.45
2019-01-21T05:06:39.032Z,85.96
2019-01-21T05:17:25.124Z,85.65
2019-01-21T05:20:25.588Z,85.62
2019-01-21T05:23:51.924Z,86.07
2019-01-21T05:26:51.449Z,85.70
2019-01-21T05:30:17.771Z,85.73
2019-01-21T05:33:08.442Z,85.86
2019-01-21T05:36:18.560Z,86.00
2019-01-21T05:43:03.883Z,86.49
2019-01-21T05:46:03.526Z,86.69
2019-01-21T05:49:30.104Z,86.62
2019-01-21T05:52:29.845Z,86.02
2019-01-21T05:55:56.554Z,85.70
2019-01-21T05:58:56.372Z,86.56
2019-01-21T06:02:22.703Z,87.50
2019-01-21T06:09:10.608Z,85.45
2019-01-21T06:12:11.984Z,85.77
2019-01-21T06:15:38.672Z,86.23
2019-01-21T06:18:19.011Z,86.00
2019-01-21T06:24:46.612Z,85.37
2019-01-21T06:28:06.885Z,86.06
2019-01-21T06:31:06.790Z,86.06
2019-01-21T06:34:33.214Z,86.21
2019-01-21T06:37:13.602Z,86.47
2019-01-21T06:40:13.838Z,86.65
2019-01-21T06:43:40.175Z,86.99
2019-01-21T06:46:39.788Z,86.35
2019-01-21T06:49:55.498Z,87.12
2019-01-21T06:52:55.451Z,87.30
2019-01-21T06:56:21.818Z,88.20
2019-01-21T06:59:22.321Z,87.81
2019-01-21T07:02:48.637Z,87.75
2019-01-21T07:05:48.421Z,86.78
2019-01-21T07:08:55.405Z,85.80
2019-01-21T07:11:55.812Z,85.41
2019-01-21T07:15:22.144Z,85.16
2019-01-21T07:18:25.945Z,85.38
2019-01-21T07:21:50.548Z,85.70
2019-01-21T07:24:51.054Z,85.91
2019-01-21T07:28:17.423Z,86.15
2019-01-21T07:31:17.649Z,86.12
2019-01-21T07:34:44.011Z,86.34
2019-01-21T07:37:44.517Z,86.14
2019-01-21T07:40:29.694Z,85.94
2019-01-21T07:47:30.850Z,85.09
2019-01-21T07:50:30.526Z,85.46
2019-01-21T07:53:56.911Z,85.93
2019-01-21T07:56:57.317Z,84.50
2019-01-21T07:59:57.504Z,84.26
2019-01-21T08:03:23.843Z,82.88
2019-01-21T08:06:11.271Z,82.09
2019-01-21T08:13:09.025Z,81.23
2019-01-21T08:16:35.469Z,80.86
2019-01-21T08:19:25.408Z,80.75
2019-01-21T08:22:53.619Z,81.38
2019-01-21T08:25:53.286Z,81.85
2019-01-21T08:29:19.715Z,81.76
2019-01-21T08:32:25.990Z,81.00
2019-01-21T08:35:52.871Z,80.66
2019-01-21T08:38:58.284Z,80.33
2019-01-21T08:42:09.255Z,81.00
2019-01-21T08:48:41.392Z,78.74
2019-01-21T08:54:56.103Z,79.23
2019-01-21T08:58:04.636Z,79.30
2019-01-21T09:01:05.399Z,78.69
2019-01-21T09:04:31.717Z,78.50
2019-01-21T09:07:32.008Z,77.92
2019-01-21T09:10:58.344Z,77.00
2019-01-21T09:13:57.998Z,76.06
2019-01-21T09:17:24.560Z,76.51
2019-01-21T09:20:10.488Z,75.67
2019-01-21T09:23:08.114Z,75.82
2019-01-21T09:26:34.793Z,76.21
2019-01-21T09:29:35.237Z,74.97
2019-01-21T09:32:37.934Z,73.59
2019-01-21T09:39:29.515Z,74.02
2019-01-21T09:42:40.859Z,72.60
2019-01-21T09:46:07.415Z,72.55
2019-01-21T09:48:47.704Z,71.77
2019-01-21T09:51:35.334Z,72.30
2019-01-21T09:54:15.697Z,70.58
2019-01-21T10:00:19.343Z,70.99
2019-01-21T10:02:59.506Z,71.69
2019-01-21T10:05:39.850Z,71.92
2019-01-21T10:08:25.414Z,71.47
2019-01-21T10:11:51.778Z,69.85
2019-01-21T10:14:51.325Z,69.27
2019-01-21T10:18:17.783Z,69.16
2019-01-21T10:25:28.513Z,69.23
2019-01-21T10:32:38.240Z,68.14
2019-01-21T10:35:38.724Z,68.01
2019-01-21T10:39:05.196Z,68.73
2019-01-21T10:42:05.123Z,67.80
2019-01-21T10:45:31.986Z,67.31
2019-01-21T10:48:31.819Z,66.47
2019-01-21T10:51:58.134Z,66.76
2019-01-21T10:55:00.727Z,65.78
2019-01-21T10:57:54.537Z,66.24
2019-01-21T11:04:47.407Z,65.42
2019-01-21T11:08:13.828Z,67.39
2019-01-21T11:11:01.381Z,67.60
2019-01-21T11:14:27.810Z,65.09
2019-01-21T11:17:27.894Z,64.97
2019-01-21T11:20:54.234Z,65.31
2019-01-21T11:23:54.086Z,65.34
2019-01-21T11:27:20.427Z,64.13
2019-01-21T11:30:21.442Z,64.73
2019-01-21T11:33:47.855Z,64.65
2019-01-21T11:36:40.763Z,63.62
2019-01-21T11:40:07.782Z,62.95
2019-01-21T11:43:08.398Z,63.04
2019-01-21T11:46:34.763Z,62.84
2019-01-21T11:49:35.262Z,63.98
2019-01-21T11:59:23.045Z,62.48
2019-01-21T12:02:23.968Z,61.65
2019-01-21T12:05:33.379Z,61.44
2019-01-21T12:08:21.057Z,60.65
2019-01-21T12:11:47.426Z,62.07
2019-01-21T12:22:16.408Z,61.44
2019-01-21T12:25:16.063Z,60.89
2019-01-21T12:28:44.750Z,59.91
2019-01-21T12:31:45.221Z,61.90
2019-01-21T12:38:26.820Z,60.39
2019-01-21T12:41:27.024Z,60.58
2019-01-21T12:44:53.374Z,59.97
2019-01-21T12:47:39.315Z,60.54
2019-01-21T12:51:05.639Z,61.34
2019-01-21T12:54:08.914Z,60.67
2019-01-21T12:57:35.339Z,61.79
2019-01-21T13:00:15.722Z,61.21
2019-01-21T13:03:15.786Z,61.27
2019-01-21T13:09:28.923Z,60.25
2019-01-21T13:16:11.711Z,60.20
2019-01-21T13:19:38.032Z,61.04
2019-01-21T13:26:38.742Z,62.87
2019-01-21T13:29:38.230Z,56.24
2019-01-21T13:33:04.638Z,52.31
2019-01-21T13:36:04.121Z,48.36
2019-01-21T13:39:30.549Z,49.87
2019-01-21T13:42:13.252Z,49.95
2019-01-21T13:45:39.600Z,48.99
2019-01-21T13:48:45.460Z,49.27
2019-01-21T13:52:11.831Z,48.02
2019-01-21T13:55:17.754Z,45.80
2019-01-21T13:58:21.052Z,45.95
2019-01-21T14:01:20.748Z,45.84
2019-01-21T14:04:35.553Z,47.01
2019-01-21T14:07:35.468Z,47.10
2019-01-21T14:14:05.765Z,48.08
2019-01-21T14:20:52.692Z,45.84
2019-01-21T14:23:59.636Z,45.85
2019-01-21T14:26:49.907Z,45.97
2019-01-21T14:30:00.226Z,46.33
2019-01-21T14:33:06.330Z,46.46
2019-01-21T14:36:16.148Z,45.84
2019-01-21T14:39:28.449Z,43.87
2019-01-21T14:45:49.341Z,44.82
2019-01-21T14:52:41.743Z,44.71
2019-01-21T14:55:43.045Z,49.43
2019-01-21T14:58:29.579Z,41.84
2019-01-21T15:01:39.967Z,41.67
2019-01-21T15:04:41.519Z,41.64
2019-01-21T15:08:22.023Z,44.56
2019-01-21T15:11:23.517Z,46.90
2019-01-21T15:14:39.123Z,49.38
2019-01-21T15:17:43.653Z,53.55
2019-01-21T15:20:57.733Z,58.42
2019-01-21T15:23:43.863Z,60.11
2019-01-21T15:26:47.760Z,60.58
2019-01-21T15:29:27.774Z,61.81
2019-01-21T15:32:33.144Z,63.33
2019-01-21T15:35:14.197Z,64.40
2019-01-21T15:38:20.907Z,66.19
2019-01-21T15:41:48.078Z,66.92
2019-01-21T15:48:10.062Z,66.21
2019-01-21T15:51:10.806Z,67.19
2019-01-21T15:54:06.827Z,68.63
2019-01-21T15:57:29.757Z,69.84
2019-01-21T16:07:11.208Z,73.20
2019-01-21T16:10:13.044Z,70.80
2019-01-21T16:13:51.533Z,72.59
2019-01-21T16:17:18.196Z,72.01
2019-01-21T16:20:01.358Z,71.74
2019-01-21T16:23:28.067Z,72.62
2019-01-21T16:26:27.859Z,73.95
2019-01-21T16:29:54.233Z,72.62
2019-01-21T16:32:34.450Z,73.20
2019-01-21T16:35:35.189Z,72.46
2019-01-21T16:38:18.330Z,71.63
2019-01-21T16:41:44.878Z,71.48
2019-01-21T16:44:25.819Z,71.09
2019-01-21T16:47:04.135Z,71.53
2019-01-21T16:49:51.566Z,71.09
2019-01-21T16:52:31.669Z,70.70
2019-01-21T16:55:19.014Z,71.20
2019-01-21T16:57:59.412Z,71.24
2019-01-21T17:00:39.504Z,71.60
2019-01-21T17:03:20.310Z,71.60
2019-01-21T17:06:07.687Z,72.18
2019-01-21T17:08:48.391Z,73.21
2019-01-21T17:11:35.977Z,73.20
2019-01-21T17:14:36.369Z,74.30
2019-01-21T17:17:15.027Z,75.46
2019-01-21T17:20:04.087Z,75.31
2019-01-21T17:22:44.206Z,76.09
2019-01-21T17:25:25.399Z,75.06
2019-01-21T17:28:12.710Z,76.33
2019-01-21T17:30:51.605Z,76.09
2019-01-21T17:33:39.145Z,75.15
2019-01-21T17:36:19.593Z,74.99
2019-01-21T17:42:06.661Z,72.83
2019-01-21T17:44:47.102Z,73.75
2019-01-21T17:50:57.795Z,76.43
2019-01-21T17:53:38.788Z,77.12
2019-01-21T17:56:26.308Z,76.23
2019-01-21T17:59:07.224Z,74.02
2019-01-21T18:01:54.643Z,76.09
2019-01-21T18:04:35.930Z,75.55
2019-01-21T18:07:23.494Z,77.62
2019-01-21T18:10:05.220Z,77.26
2019-01-21T18:12:52.661Z,76.27
2019-01-21T18:15:33.364Z,75.74
2019-01-21T18:18:21.081Z,75.47
2019-01-21T18:21:01.670Z,76.69
2019-01-21T18:23:49.255Z,75.96
2019-01-21T18:26:49.097Z,76.38
2019-01-21T18:29:30.248Z,77.47
2019-01-21T18:32:17.720Z,76.75
2019-01-21T18:34:58.627Z,74.68
2019-01-21T18:37:46.137Z,76.68
2019-01-21T18:40:26.937Z,74.90
2019-01-21T18:43:14.543Z,74.98
2019-01-21T18:45:55.157Z,75.20
2019-01-21T18:51:46.664Z,74.46
2019-01-21T18:54:45.298Z,73.96
2019-01-21T18:57:33.977Z,77.00
2019-01-21T19:00:35.341Z,74.59
2019-01-21T19:03:23.170Z,74.45
2019-01-21T19:06:03.469Z,74.70
2019-01-21T19:08:51.057Z,74.99
2019-01-21T19:11:32.107Z,74.95
2019-01-21T19:14:19.597Z,74.90
2019-01-21T19:17:00.062Z,76.87
2019-01-21T19:19:47.450Z,76.01
2019-01-21T19:22:26.147Z,73.89
2019-01-21T19:25:13.589Z,73.90
2019-01-21T19:27:53.755Z,74.21
2019-01-21T19:30:41.251Z,73.90
2019-01-21T19:33:22.269Z,75.40
2019-01-21T19:36:09.741Z,75.08
2019-01-21T19:38:50.648Z,72.97
2019-01-21T19:41:38.142Z,74.87
2019-01-21T19:44:18.335Z,73.67
2019-01-21T19:47:05.663Z,74.64
2019-01-21T19:49:45.837Z,71.93
2019-01-21T19:52:33.187Z,71.88
2019-01-21T19:55:15.452Z,71.89
2019-01-21T19:58:02.918Z,72.98
2019-01-21T20:01:09.936Z,72.34
2019-01-21T20:03:48.167Z,72.16
2019-01-21T20:06:35.541Z,74.03
2019-01-21T20:09:16.047Z,74.28
2019-01-21T20:11:56.729Z,73.16
2019-01-21T20:14:44.425Z,73.56
2019-01-21T20:17:24.903Z,75.70
2019-01-21T20:24:01.784Z,74.39
2019-01-21T20:26:42.164Z,74.07
2019-01-21T20:29:23.154Z,75.85
2019-01-21T20:32:10.610Z,73.59
2019-01-21T20:34:51.588Z,74.57
2019-01-21T20:37:39.054Z,73.74
2019-01-21T20:40:21.195Z,75.42
2019-01-21T20:43:08.621Z,74.95
2019-01-21T20:45:49.407Z,74.61
2019-01-21T20:48:36.840Z,74.91
2019-01-21T20:51:16.761Z,75.70
2019-01-21T20:53:57.509Z,76.00
2019-01-21T20:56:44.943Z,73.22
2019-01-21T20:59:25.956Z,72.36
2019-01-21T21:02:13.860Z,73.67
2019-01-21T21:04:54.341Z,72.94
2019-01-21T21:07:42.187Z,73.34
2019-01-21T21:10:22.683Z,73.62
2019-01-21T21:13:02.775Z,73.92
2019-01-21T21:15:51.311Z,73.46
2019-01-21T21:18:33.528Z,74.03
2019-01-21T21:21:21.197Z,74.20
2019-01-21T21:24:02.269Z,73.78
2019-01-21T21:26:49.692Z,74.95
2019-01-21T21:29:30.398Z,74.79
2019-01-21T21:32:18.135Z,76.67
2019-01-21T21:34:58.540Z,76.38
2019-01-21T21:37:46.017Z,77.72
2019-01-21T21:40:26.770Z,79.08
2019-01-21T21:43:14.131Z,81.52
2019-01-21T21:45:55.045Z,76.88
2019-01-21T21:48:42.502Z,77.62
2019-01-21T21:51:23.278Z,77.13
2019-01-21T21:54:10.670Z,76.19
2019-01-21T21:56:51.457Z,76.30
2019-01-21T21:59:31.576Z,76.75
2019-01-21T22:02:38.961Z,76.53
2019-01-21T22:05:19.922Z,77.92
2019-01-21T22:08:07.536Z,77.52
2019-01-21T22:10:56.467Z,77.25
2019-01-21T22:13:43.904Z,76.45
2019-01-21T22:16:45.725Z,76.59
2019-01-21T22:19:33.134Z,76.76
2019-01-21T22:22:13.903Z,78.33
2019-01-21T22:25:01.434Z,78.35
2019-01-21T22:27:42.078Z,78.30
2019-01-21T22:30:29.568Z,78.60
2019-01-21T22:33:10.124Z,79.08
2019-01-21T22:35:57.941Z,79.55
2019-01-21T22:38:38.591Z,80.00
2019-01-21T22:44:25.973Z,80.90
2019-01-21T22:47:05.955Z,81.01
2019-01-21T22:49:53.603Z,81.15
2019-01-21T22:52:34.266Z,80.77
2019-01-21T22:55:22.049Z,81.49
2019-01-21T22:58:02.460Z,82.28
2019-01-21T23:01:28.796Z,82.70
2019-01-21T23:04:09.865Z,82.30
2019-01-21T23:06:57.287Z,82.95
2019-01-21T23:09:59.460Z,83.07
2019-01-21T23:12:46.899Z,83.32
2019-01-21T23:15:27.479Z,82.47
2019-01-21T23:18:14.882Z,82.28
2019-01-21T23:20:54.964Z,82.99
2019-01-21T23:23:42.390Z,83.54
2019-01-21T23:26:23.325Z,85.40
2019-01-21T23:31:27.747Z,84.50
2019-01-21T23:34:08.699Z,85.43
2019-01-21T23:36:49.656Z,84.22
2019-01-21T23:42:58.873Z,85.13
2019-01-21T23:45:39.296Z,85.90
2019-01-21T23:48:27.012Z,85.94
2019-01-21T23:51:07.152Z,84.68
2019-01-21T23:53:47.797Z,83.06
2019-01-21T23:56:35.436Z,82.94
